Terminal Aerodrome Forecast
Issued by NWS

Home | Current Version | Previous Version | Text Only | Print | Product List | Glossary On
Versions: 1 2 3 4 5 6 7 8 9 10 11 12 13 14 15 16 17
000
FTUS42 KMLB 061738
TAFTIX
TAF
KTIX 061738Z 0618/0718 01011KT P6SM VCSH SCT020 BKN090
      TEMPO 0618/0620 3SM SHRA BKN020
     FM070000 03008KT P6SM FEW020 BKN030
     FM070600 32005KT P6SM FEW020 SCT080=

USA.gov is the U.S. government's official web portal to all federal, state and local government web resources and services.